createdAt,value
2022-11-24T00:02:07.849Z,37.50
2022-11-24T00:06:16.774Z,28.30
2022-11-24T00:10:24.829Z,28.90
2022-11-24T00:14:33.281Z,27.20
2022-11-24T00:18:42.233Z,27.30
2022-11-24T00:22:50.192Z,38.30
2022-11-24T00:26:57.984Z,36.10
2022-11-24T00:31:06.296Z,30.30
2022-11-24T00:35:13.819Z,30.30
2022-11-24T00:39:23.349Z,27.90
2022-11-24T00:43:30.484Z,27.00
2022-11-24T00:47:39.029Z,25.90
2022-11-24T00:51:46.623Z,37.50
2022-11-24T00:55:54.599Z,36.60
2022-11-24T01:00:02.373Z,29.10
2022-11-24T01:04:11.873Z,29.40
2022-11-24T01:08:21.158Z,27.00
2022-11-24T01:12:29.300Z,28.30
2022-11-24T01:16:38.995Z,28.90
2022-11-24T01:20:46.686Z,37.70
2022-11-24T01:24:54.301Z,37.60
2022-11-24T01:29:01.966Z,29.50
2022-11-24T01:33:10.217Z,29.60
2022-11-24T01:37:18.272Z,28.40
2022-11-24T01:41:27.282Z,27.10
2022-11-24T01:45:41.345Z,25.60
2022-11-24T01:49:51.237Z,38.60
2022-11-24T01:54:02.290Z,34.30
2022-11-24T01:58:11.505Z,28.50
2022-11-24T02:02:19.320Z,29.60
2022-11-24T02:06:31.377Z,25.40
2022-11-24T02:10:39.625Z,25.60
2022-11-24T02:14:47.835Z,23.50
2022-11-24T02:18:55.817Z,35.20
2022-11-24T02:23:07.177Z,31.30
2022-11-24T02:27:14.698Z,28.70
2022-11-24T02:31:22.403Z,26.40
2022-11-24T02:35:31.239Z,27.90
2022-11-24T02:39:38.886Z,24.70
2022-11-24T02:43:48.914Z,25.40
2022-11-24T02:47:57.426Z,24.00
2022-11-24T02:52:07.394Z,33.10
2022-11-24T02:56:14.910Z,34.50
2022-11-24T03:00:23.716Z,27.40
2022-11-24T03:04:31.404Z,29.20
2022-11-24T03:08:42.321Z,25.40
2022-11-24T03:12:50.088Z,26.00
2022-11-24T03:16:57.985Z,33.10
2022-11-24T03:21:07.523Z,33.10
2022-11-24T03:25:14.919Z,27.70
2022-11-24T03:29:25.196Z,27.30
2022-11-24T03:33:32.665Z,28.40
2022-11-24T03:37:41.960Z,27.40
2022-11-24T03:41:51.655Z,26.70
2022-11-24T03:45:59.789Z,37.30
2022-11-24T03:50:09.438Z,36.20
2022-11-24T03:54:19.219Z,31.70
2022-11-24T03:58:27.131Z,27.50
2022-11-24T04:02:34.533Z,26.40
2022-11-24T04:06:42.798Z,28.60
2022-11-24T04:10:52.646Z,29.80
2022-11-24T04:15:00.128Z,40.00
2022-11-24T04:19:09.179Z,37.50
2022-11-24T04:23:17.274Z,32.40
2022-11-24T04:27:24.707Z,32.90
2022-11-24T04:31:32.457Z,33.40
2022-11-24T04:35:39.981Z,34.00
2022-11-24T04:39:48.278Z,45.60
2022-11-24T04:43:55.893Z,42.30
2022-11-24T04:48:03.602Z,35.10
2022-11-24T04:52:11.058Z,33.10
2022-11-24T04:56:18.896Z,34.70
2022-11-24T05:00:26.764Z,35.00
2022-11-24T05:04:36.309Z,48.40
2022-11-24T05:08:44.845Z,43.00
2022-11-24T05:12:59.767Z,34.80
2022-11-24T05:17:07.943Z,35.70
2022-11-24T05:21:15.833Z,31.90
2022-11-24T05:25:23.351Z,31.90
2022-11-24T05:29:31.378Z,45.20
2022-11-24T05:33:38.859Z,42.20
2022-11-24T05:37:47.780Z,32.20
2022-11-24T05:41:55.581Z,30.90
2022-11-24T05:46:06.574Z,30.40
2022-11-24T05:50:15.606Z,27.60
2022-11-24T05:54:23.784Z,40.10
2022-11-24T05:58:32.872Z,37.50
2022-11-24T06:02:41.362Z,27.00
2022-11-24T06:06:49.253Z,27.60
2022-11-24T06:11:16.325Z,25.10
2022-11-24T06:15:24.276Z,27.60
2022-11-24T06:19:32.501Z,39.50
2022-11-24T06:23:41.823Z,37.00
2022-11-24T06:27:50.185Z,31.60
2022-11-24T06:31:57.602Z,30.00
2022-11-24T06:36:08.006Z,29.00
2022-11-24T06:40:17.486Z,25.40
2022-11-24T06:44:25.469Z,22.50
2022-11-24T06:48:35.679Z,35.20
2022-11-24T06:52:44.184Z,34.60
2022-11-24T06:56:57.051Z,30.70
2022-11-24T07:01:04.825Z,29.50
2022-11-24T07:05:13.166Z,27.40
2022-11-24T07:09:20.471Z,26.10
2022-11-24T07:13:28.528Z,27.70
2022-11-24T07:17:39.013Z,36.10
2022-11-24T07:21:46.494Z,35.90
2022-11-24T07:25:54.005Z,28.50
2022-11-24T07:30:03.395Z,28.10
2022-11-24T07:34:12.970Z,25.90
2022-11-24T07:38:20.761Z,27.20
2022-11-24T07:42:28.479Z,36.30
2022-11-24T07:46:36.061Z,32.90
2022-11-24T07:50:43.592Z,28.90
2022-11-24T07:54:51.277Z,28.20
2022-11-24T07:58:58.919Z,29.30
2022-11-24T08:03:06.894Z,27.90
2022-11-24T08:07:14.777Z,38.80
2022-11-24T08:11:23.180Z,35.20
2022-11-24T08:15:31.842Z,29.80
2022-11-24T08:19:39.434Z,29.90
2022-11-24T08:23:46.923Z,30.70
2022-11-24T08:27:54.173Z,30.20
2022-11-24T08:32:01.893Z,40.60
2022-11-24T08:36:12.067Z,36.70
2022-11-24T08:40:20.734Z,33.30
2022-11-24T08:44:29.725Z,33.30
2022-11-24T08:48:38.132Z,31.50
2022-11-24T08:52:45.874Z,31.80
2022-11-24T08:56:53.740Z,33.20
2022-11-24T09:01:07.489Z,36.30
2022-11-24T09:05:43.650Z,40.10
2022-11-24T09:09:44.759Z,37.30
2022-11-24T09:13:53.100Z,33.00
2022-11-24T09:18:01.859Z,29.80
2022-11-24T09:22:10.064Z,32.20
2022-11-24T09:26:19.756Z,31.40
2022-11-24T09:30:27.366Z,31.20
2022-11-24T09:34:35.021Z,34.90
2022-11-24T09:38:42.922Z,34.60
2022-11-24T09:42:58.425Z,34.20
2022-11-24T09:47:11.379Z,30.20
2022-11-24T09:51:19.713Z,30.60
2022-11-24T09:55:34.905Z,31.10
2022-11-24T09:59:43.830Z,29.10
2022-11-24T10:03:53.444Z,36.90
2022-11-24T10:08:10.099Z,37.40
2022-11-24T10:12:39.965Z,33.10
2022-11-24T10:16:53.615Z,30.40
2022-11-24T10:21:09.744Z,33.00
2022-11-24T10:25:23.969Z,30.90
2022-11-24T10:29:35.248Z,30.60
2022-11-24T10:33:43.630Z,36.00
2022-11-24T10:37:58.768Z,31.80
2022-11-24T10:42:13.109Z,28.70
2022-11-24T10:46:27.105Z,27.30
2022-11-24T10:50:37.643Z,27.10
2022-11-24T10:54:59.301Z,27.80
2022-11-24T10:59:34.009Z,31.70
2022-11-24T11:03:49.610Z,29.30
2022-11-24T11:08:16.116Z,26.10
2022-11-24T11:12:43.461Z,25.80
2022-11-24T11:16:55.652Z,25.20
2022-11-24T11:21:04.779Z,25.90
2022-11-24T11:25:23.034Z,23.10
2022-11-24T11:34:06.138Z,29.70
2022-11-24T11:38:16.291Z,25.90
2022-11-24T11:43:00.093Z,27.30
2022-11-24T11:46:56.114Z,22.50
2022-11-24T11:51:22.979Z,25.70
2022-11-24T11:55:46.582Z,27.90
2022-11-24T12:00:09.951Z,29.20
2022-11-24T12:04:26.472Z,29.70
2022-11-24T12:09:18.066Z,25.40
2022-11-24T12:13:37.939Z,26.90
2022-11-24T12:17:47.896Z,26.90
2022-11-24T12:22:00.504Z,26.10
2022-11-24T12:26:14.700Z,29.70
2022-11-24T12:30:24.134Z,29.70
2022-11-24T12:34:44.943Z,28.40
2022-11-24T12:38:59.271Z,28.40
2022-11-24T12:43:12.895Z,30.00
2022-11-24T12:47:24.054Z,30.30
2022-11-24T12:51:34.993Z,32.10
2022-11-24T12:55:43.036Z,31.00
2022-11-24T12:59:57.936Z,29.00
2022-11-24T13:04:12.096Z,31.20
2022-11-24T13:08:20.011Z,27.50
2022-11-24T13:12:31.527Z,27.90
2022-11-24T13:17:21.882Z,33.00
2022-11-24T13:21:47.667Z,31.20
2022-11-24T13:26:29.224Z,27.10
2022-11-24T13:31:08.983Z,27.00
2022-11-24T13:35:18.295Z,27.90
2022-11-24T13:39:50.909Z,29.60
2022-11-24T13:44:25.407Z,31.40
2022-11-24T13:49:02.535Z,30.00
2022-11-24T13:53:14.834Z,29.00
2022-11-24T13:57:39.822Z,28.00
2022-11-24T14:01:48.836Z,29.30
2022-11-24T14:05:56.759Z,28.10
2022-11-24T14:10:04.922Z,32.80
2022-11-24T14:14:21.803Z,29.10
2022-11-24T14:18:30.207Z,29.70
2022-11-24T14:22:40.947Z,27.80
2022-11-24T14:26:49.133Z,28.20
2022-11-24T14:31:10.064Z,29.40
2022-11-24T14:35:26.557Z,27.40
2022-11-24T14:39:43.626Z,31.00
2022-11-24T14:43:50.939Z,30.40
2022-11-24T14:47:58.663Z,30.00
2022-11-24T14:52:12.871Z,28.40
2022-11-24T14:56:31.674Z,30.00
2022-11-24T15:00:40.163Z,28.50
2022-11-24T15:05:03.615Z,28.40
2022-11-24T15:09:23.622Z,29.60
2022-11-24T15:13:33.399Z,29.40
2022-11-24T15:17:47.417Z,29.50
2022-11-24T15:21:55.334Z,28.20
2022-11-24T15:26:32.215Z,28.70
2022-11-24T15:30:43.581Z,28.90
2022-11-24T15:34:51.267Z,28.80
2022-11-24T15:38:59.352Z,31.10
2022-11-24T15:43:20.045Z,30.80
2022-11-24T15:47:27.477Z,31.80
2022-11-24T15:51:35.261Z,28.50
2022-11-24T15:55:43.722Z,30.40
2022-11-24T15:59:51.735Z,28.40
2022-11-24T16:04:00.417Z,29.50
2022-11-24T16:08:10.257Z,32.00
2022-11-24T16:12:17.982Z,31.00
2022-11-24T16:16:26.224Z,30.10
2022-11-24T16:20:37.111Z,30.60
2022-11-24T16:24:44.610Z,30.70
2022-11-24T16:28:52.077Z,30.50
2022-11-24T16:32:59.840Z,35.20
2022-11-24T16:37:11.556Z,39.60
2022-11-24T16:41:19.224Z,42.10
2022-11-24T16:45:26.787Z,50.20
2022-11-24T16:49:34.669Z,67.20
2022-11-24T16:53:42.664Z,68.20
2022-11-24T16:57:50.535Z,39.40
2022-11-24T17:01:58.290Z,39.70
2022-11-24T17:06:08.261Z,40.60
2022-11-24T17:10:16.161Z,47.70
2022-11-24T17:14:23.417Z,44.00
2022-11-24T17:18:30.913Z,37.60
2022-11-24T17:22:38.749Z,34.80
2022-11-24T17:26:49.152Z,34.90
2022-11-24T17:30:56.790Z,33.10
2022-11-24T17:35:06.476Z,34.20
2022-11-24T17:39:15.307Z,33.30
2022-11-24T17:43:23.944Z,35.10
2022-11-24T17:47:31.547Z,40.00
2022-11-24T17:51:39.551Z,37.80
2022-11-24T17:55:48.504Z,35.80
2022-11-24T17:59:56.539Z,38.30
2022-11-24T18:04:05.301Z,38.60
2022-11-24T18:08:13.879Z,31.90
2022-11-24T18:12:21.863Z,31.90
2022-11-24T18:16:30.639Z,31.80
2022-11-24T18:20:38.713Z,33.20
2022-11-24T18:24:46.443Z,33.50
2022-11-24T18:28:55.025Z,30.70
2022-11-24T18:33:03.028Z,31.60
2022-11-24T18:37:13.478Z,29.40
2022-11-24T18:41:22.566Z,28.60
2022-11-24T18:45:30.174Z,30.20
2022-11-24T18:49:37.937Z,28.80
2022-11-24T18:53:47.090Z,33.00
2022-11-24T18:57:54.753Z,31.90
2022-11-24T19:02:02.121Z,30.00
2022-11-24T19:06:12.291Z,37.90
2022-11-24T19:10:21.921Z,42.30
2022-11-24T19:14:29.780Z,38.70
2022-11-24T19:18:38.903Z,39.90
2022-11-24T19:22:46.748Z,47.70
2022-11-24T19:26:55.612Z,39.90
2022-11-24T19:31:05.253Z,39.60
2022-11-24T19:35:13.053Z,31.20
2022-11-24T19:39:21.816Z,32.40
2022-11-24T19:43:30.013Z,34.30
2022-11-24T19:47:37.479Z,38.20
2022-11-24T19:51:45.147Z,37.70
2022-11-24T19:55:52.440Z,31.40
2022-11-24T20:00:00.140Z,35.30
2022-11-24T20:04:12.396Z,35.10
2022-11-24T20:08:20.508Z,33.30
2022-11-24T20:12:29.469Z,44.40
2022-11-24T20:16:37.616Z,67.60
2022-11-24T20:20:45.743Z,58.30
2022-11-24T20:24:52.982Z,68.10
2022-11-24T20:29:01.617Z,68.10
2022-11-24T20:33:09.850Z,68.90
2022-11-24T20:37:17.829Z,70.20
2022-11-24T20:41:28.861Z,63.70
2022-11-24T20:45:39.805Z,57.50
2022-11-24T20:49:46.974Z,55.20
2022-11-24T20:53:56.574Z,50.20
2022-11-24T20:58:05.187Z,48.50
2022-11-24T21:02:13.379Z,54.10
2022-11-24T21:06:21.258Z,53.50
2022-11-24T21:10:31.716Z,51.10
2022-11-24T21:14:42.072Z,45.70
2022-11-24T21:18:51.670Z,47.50
2022-11-24T21:22:59.075Z,54.40
2022-11-24T21:27:07.103Z,54.90
2022-11-24T21:31:16.977Z,61.40
2022-11-24T21:35:25.371Z,52.40
2022-11-24T21:39:33.510Z,48.80
2022-11-24T21:43:41.655Z,50.20
2022-11-24T21:47:50.078Z,49.00
2022-11-24T21:51:57.503Z,47.40
2022-11-24T21:56:07.328Z,49.70
2022-11-24T22:00:17.334Z,49.80
2022-11-24T22:04:24.984Z,49.30
2022-11-24T22:08:33.303Z,47.90
2022-11-24T22:12:40.532Z,41.80
2022-11-24T22:16:48.347Z,43.50
2022-11-24T22:20:59.510Z,41.30
2022-11-24T22:25:07.601Z,31.70
2022-11-24T22:29:15.697Z,26.30
2022-11-24T22:33:23.313Z,28.70
2022-11-24T22:37:31.204Z,26.70
2022-11-24T22:41:38.747Z,28.50
2022-11-24T22:45:46.359Z,33.40
2022-11-24T22:49:53.907Z,32.20
2022-11-24T22:54:02.862Z,30.20
2022-11-24T22:58:12.576Z,28.40
2022-11-24T23:02:20.134Z,29.50
2022-11-24T23:06:29.185Z,33.70
2022-11-24T23:10:36.962Z,37.30
2022-11-24T23:14:46.188Z,38.10
2022-11-24T23:18:54.228Z,36.10
2022-11-24T23:23:01.982Z,36.60
2022-11-24T23:27:09.428Z,32.70
2022-11-24T23:31:21.130Z,34.30
2022-11-24T23:35:29.007Z,38.00
2022-11-24T23:39:36.254Z,32.60
2022-11-24T23:43:44.665Z,31.40
2022-11-24T23:47:52.683Z,32.40
2022-11-24T23:52:00.434Z,31.80
2022-11-24T23:56:08.762Z,36.60
